Earning Calendar for Industry: Real Estate Investment Trusts

Report Date Report Time Symbol Name Sector Market Cap(M) EPS EPS Forecast EPS Surprise Price(ER) Day 1 Price Change% Day 2 Price Change% Two Days Price Change%
2017-08-14 08/14/2017 GNL Global Net Lease, Inc. Consumer Services 1510 0.8 21.99
2017-08-14 08/14/2017 RWT Redwood Trust, Inc. Consumer Services 1320 1.76 17.07
2017-08-14 08/14/2017 BRG Bluerock Residential Growth REIT, Inc. Consumer Services 312.55 -0.82 13.3
2017-08-14 08/14/2017 CTRE CareTrust REIT, Inc. Consumer Services 1380 0.56 18.29
2017-08-10 08/10/2017 PW Power REIT Consumer Services 12.33 0 8
2017-08-10 08/10/2017 CCP Care Capital Properties, Inc. Consumer Services 2190 1.88 25.59
2017-08-10 08/10/2017 before market open GMRE Global Medical REIT Inc. Consumer Services 166.55 -5.85 9.45
2017-08-09 08/09/2017 before market open NHI National Health Investors, Inc. Consumer Services 3170 4.12 77.27
2017-08-09 08/09/2017 after market close MNR Monmouth Real Estate Investment Corporation Consumer Services 1090 0.32 15.48
2017-08-09 08/09/2017 before market open STWD STARWOOD PROPERTY TRUST, INC. Consumer Services 5870 1.77 21.86
2017-08-09 08/09/2017 after market close SFR Colony Starwood Homes Consumer Services 4360 -0.47 34.93
2017-08-09 08/09/2017 after market close NYRT New York REIT, Inc. Consumer Services 1450 -0.5 8.68
2017-08-08 08/08/2017 before market open DEA Easterly Government Properties, Inc. Consumer Services 787.08 0.1 20.08
2017-08-08 08/08/2017 after market close CLNS Colony NorthStar, Inc. Consumer Services 7820 0.2 14.7
2017-08-08 08/08/2017 after market close CHCT Community Healthcare Trust Incorporated Consumer Services 336.41 0.27 24.93
2017-08-08 08/08/2017 after market close LAND Gladstone Land Corporation Consumer Services 134.5 0.04 11.68
2017-08-08 08/08/2017 before market open RAS RAIT Financial Trust Consumer Services 217.83 -0.24 2.12
2017-08-08 08/08/2017 SLD Sutherland Asset Management Corporation Consumer Services 468.54 1.78 14.65
2017-08-08 08/08/2017 after market close PEI Pennsylvania Real Estate Investment Trust Consumer Services 806.21 -0.47 12.01
2017-08-08 08/08/2017 DS Drive Shack Inc. Consumer Services 204.54 -0.22 3.1
2017-08-08 08/08/2017 before market open LXP Lexington Realty Trust Consumer Services 2470 0.34 10.11
2017-08-08 08/08/2017 after market close WHLR Wheeler Real Estate Investment Trust, Inc. Consumer Services 83.9 -1.86 10.98
2017-08-08 08/08/2017 before market open LAMR Lamar Advertising Company Consumer Services 7030 2.94 72.64
2017-08-08 08/08/2017 before market open MGP MGM Growth Properties LLC Consumer Services 1670 0.72 29.45
2017-08-08 08/08/2017 CHMI Cherry Hill Mortgage Investment Corporation Consumer Services 233.94 7.16 18.89
2017-08-08 08/08/2017 HPT Hospitality Properties Trust Consumer Services 4950 1.14 28.65
2017-08-08 08/08/2017 before market open DRH Diamondrock Hospitality Company Consumer Services 2300 0.53 11.7
2017-08-08 08/08/2017 CORR CorEnergy Infrastructure Trust, Inc. Consumer Services 416.65 2.5 35.41
2017-08-08 08/08/2017 after market close MRT MedEquities Realty Trust, Inc. Consumer Services 385.11 0.03 12.41
2017-08-08 08/08/2017 before market open RHP Ryman Hospitality Properties, Inc. Consumer Services 3320 3.23 61.59
2017-08-08 08/08/2017 before market open SOHO Sotherly Hotels Inc. Consumer Services 92.17 0.08 6.61
2017-08-08 08/08/2017 after market close WMC Western Asset Mortgage Capital Corporation Consumer Services 439.74 0.75 10.24
2017-08-07 08/07/2017 after market close HHC Howard Hughes Corporation (The) Consumer Services 5030 1.62 126.77
2017-08-07 08/07/2017 after market close APLE Apple Hospitality REIT, Inc. Consumer Services 4310 0.71 18.24
2017-08-07 08/07/2017 after market close TWO Two Harbors Investments Corp Consumer Services 3580 1.47 9.69
2017-08-07 08/07/2017 after market close CXW CoreCivic, Inc. Consumer Services 3430 1.9 28.69
2017-08-07 08/07/2017 after market close TIER TIER REIT, Inc. Consumer Services 839.4 1.68 18.15
2017-08-07 08/07/2017 after market close CDOR Condor Hospitality Trust, Inc. Consumer Services 122.83 -1.12 10.5
2017-08-04 08/04/2017 before market open CDR Cedar Realty Trust, Inc. Consumer Services 449.2 0.05 5.2
2017-08-04 08/04/2017 before market open WPC W.P. Carey Inc. Consumer Services 7220 2.48 67.72
2017-08-04 08/04/2017 before market open ABR Arbor Realty Trust Consumer Services 512.89 1.11 8.23
2017-08-03 08/03/2017 after market close AMH American Homes 4 Rent Consumer Services 5800 -0.13 23.04
2017-08-03 08/03/2017 ACRE Ares Commercial Real Estate Corporation Consumer Services 385.66 1.46 12.98
2017-08-03 08/03/2017 after market close UNIT Uniti Group Inc. Consumer Services 4720 -0.23 26.38
2017-08-03 08/03/2017 IVR INVESCO MORTGAGE CAPITAL INC Consumer Services 1890 3.81 16.5
2017-08-03 08/03/2017 after market close EPR EPR Properties Consumer Services 5520 3.15 72.05
2017-08-03 08/03/2017 after market close OUT OUTFRONT Media Inc. Consumer Services 3210 0.69 23.52
2017-08-03 08/03/2017 MPW Medical Properties Trust, Inc. Consumer Services 4820 0.83 12.98
2017-08-03 08/03/2017 before market open CIO City Office REIT, Inc. Consumer Services 384.87 0.05 12.52
2017-08-03 08/03/2017 before market open SNR New Senior Investment Group Inc. Consumer Services 804.98 -0.73 10.38
2017-08-03 08/03/2017 after market close NYMT New York Mortgage Trust, Inc. Consumer Services 729.22 0.51 6.24
2017-08-03 08/03/2017 after market close CTT CatchMark Timber Trust, Inc. Consumer Services 451.75 -0.32 11.52
2017-08-03 08/03/2017 after market close RLJ RLJ Lodging Trust Consumer Services 2600 1.58 21.29
2017-08-03 08/03/2017 after market close UMH UMH Properties, Inc. Consumer Services 576.2 -0.11 16.4
2017-08-03 08/03/2017 before market open STOR STORE Capital Corporation Consumer Services 3600 0.83 23.28
2017-08-03 08/03/2017 before market open DOC Physicians Realty Trust Consumer Services 3230 0.22 18.54
2017-08-03 08/03/2017 before market open VER VEREIT Inc. Consumer Services 8230 -0.15 8.35
2017-08-03 08/03/2017 MORE Monogram Residential Trust, Inc. Consumer Services 1680 0.56 11.94
2017-08-03 08/03/2017 after market close REG Regency Centers Corporation Consumer Services 10900 0.58 64.89
2017-08-03 08/03/2017 after market close AHT Ashford Hospitality Trust Inc Consumer Services 628.48 -1.14 6.23
2017-08-03 08/03/2017 after market close LTC LTC Properties, Inc. Consumer Services 1980 2.22 51.44
2017-08-03 08/03/2017 before market open SNH Senior Housing Properties Trust Consumer Services 5100 0.6 19.25
2017-08-03 08/03/2017 after market close CBL CBL & Associates Properties, Inc. Consumer Services 1450 0.71 8.95
2017-08-03 08/03/2017 after market close DCT DCT Industrial Trust Inc Consumer Services 5070 0.78 55.76
2017-08-03 08/03/2017 after market close PGRE Paramount Group, Inc. Consumer Services 3800 -0.02 16.02
2017-08-02 08/02/2017 after market close LADR Ladder Capital Corp Consumer Services 1550 1.16 13.15
2017-08-02 08/02/2017 after market close SBRA Sabra Healthcare REIT, Inc. Consumer Services 1530 1.45 23.65
2017-08-02 08/02/2017 MFA MFA Financial, Inc. Consumer Services 3190 0.8 8.48
2017-08-02 08/02/2017 after market close FCPT Four Corners Property Trust, Inc. Consumer Services 1540 1.3 25.24
2017-08-02 08/02/2017 before market open CHSP Chesapeake Lodging Trust Consumer Services 1490 1.09 24.81
2017-08-02 08/02/2017 after market close WSR Whitestone REIT Consumer Services 469.61 0.12 12.94
2017-08-02 08/02/2017 after market close HR Healthcare Realty Trust Incorporated Consumer Services 4140 0.96 33.42
2017-08-02 08/02/2017 after market close AHP Ashford Hospitality Prime, Inc. Consumer Services 311.09 0.53 10.42
2017-08-02 08/02/2017 after market close LSI Life Storage, Inc. Consumer Services 3500 1.7 74.67
2017-08-02 08/02/2017 after market close NSA National Storage Affiliates Trust Consumer Services 997.98 0.28 22.69
2017-08-02 08/02/2017 HASI Hannon Armstrong Sustainable Infrastructure Capital, Inc. Consumer Services 1190 0.39 23.04
2017-08-02 08/02/2017 after market close AVB AvalonBay Communities, Inc. Consumer Services 27000 7.51 187.84
2017-08-02 08/02/2017 after market close MTGE MTGE Investment Corp. Consumer Services 874.74 2.16 18.55
2017-08-02 08/02/2017 PMT PennyMac Mortgage Investment Trust Consumer Services 1200 1.27 17.55
2017-08-02 08/02/2017 after market close INN Summit Hotel Properties, Inc. Consumer Services 1980 0.81 17.68
2017-08-02 08/02/2017 after market close MAC Macerich Company (The) Consumer Services 8330 1.14 59.24
2017-08-02 08/02/2017 before market open GGP GGP Inc. Consumer Services 21410 1.25 23.46
2017-08-02 08/02/2017 after market close NLY Annaly Capital Management Inc Consumer Services 12570 2.67 11.8
2017-08-02 08/02/2017 before market open HIFR InfraREIT, Inc. Consumer Services 875.57 1.18 22.75
2017-08-02 08/02/2017 after market close CONE CyrusOne Inc Consumer Services 5050 -0.21 58.7
2017-08-02 08/02/2017 after market close JCAP Jernigan Capital, Inc. Consumer Services 234.3 2.18 21.74
2017-08-02 08/02/2017 after market close RSO Resource Capital Corp. Consumer Services 312.32 -1.96 10.21
2017-08-02 08/02/2017 after market close EQIX Equinix, Inc. Consumer Services 33810 2.78 436.96
2017-08-02 08/02/2017 before market open CIM Chimera Investment Corporation Consumer Services 3600 3.32 18.56
2017-08-02 08/02/2017 after market close FRT Federal Realty Investment Trust Consumer Services 9270 3.18 132.13
2017-08-02 08/02/2017 after market close RYN Rayonier Inc. Consumer Services 3710 1.88 29.56
2017-08-02 08/02/2017 before market open CLDT Chatham Lodging Trust (REIT) Consumer Services 773.48 0.85 20.63
2017-08-02 08/02/2017 before market open DX Dynex Capital, Inc. Consumer Services 347.39 1.63 6.81
2017-08-01 08/01/2017 after market close AAT American Assets Trust, Inc. Consumer Services 1930 0.71 40.09
2017-08-01 08/01/2017 BFS Saul Centers, Inc. Consumer Services 1290 1.55 60.23
2017-08-01 08/01/2017 after market close EXR Extra Space Storage Inc Consumer Services 9670 2.89 79.48
2017-08-01 08/01/2017 after market close STAG Stag Industrial, Inc. Consumer Services 2490 0.12 27.63
2017-08-01 08/01/2017 before market open NNN National Retail Properties Consumer Services 5900 1.29 40.27
2017-08-01 08/01/2017 after market close RPT Ramco-Gershenson Properties Trust Consumer Services 1070 0.67 13.84
2017-08-01 08/01/2017 after market close BXP Boston Properties, Inc. Consumer Services 19580 2.71 119.27
2017-08-01 08/01/2017 after market close REXR Rexford Industrial Realty, Inc. Consumer Services 1860 0.39 27.9
2017-08-01 08/01/2017 after market close FSP Franklin Street Properties Corp. Consumer Services 1210 0.1 10.65
2017-08-01 08/01/2017 CLI Mack-Cali Realty Corporation Consumer Services 2540 0.72 26.13
2017-08-01 08/01/2017 before market open HCP HCP, Inc. Consumer Services 15070 2.07 31.7
2017-08-01 08/01/2017 EARN Ellington Residential Mortgage REIT Consumer Services 137.33 1.56 14.67
2017-08-01 08/01/2017 before market open SPG Simon Property Group, Inc. Consumer Services 50180 5.84 161.57
2017-08-01 08/01/2017 after market close DEI Douglas Emmett, Inc. Consumer Services 6030 0.57 37.87
2017-08-01 08/01/2017 before market open IRT Independence Realty Trust, Inc. Consumer Services 697.48 -0.1 10.07
2017-08-01 08/01/2017 after market close RPAI Retail Properties of America, Inc. Consumer Services 3050 0.42 12.99
2017-08-01 08/01/2017 after market close SKT Tanger Factory Outlet Centers, Inc. Consumer Services 2580 1.96 27.27
2017-08-01 08/01/2017 after market close GPT Gramercy Property Trust Consumer Services 4630 0.25 30.05
2017-08-01 08/01/2017 before market open NXRT NexPoint Residential Trust, Inc. Consumer Services 543.14 0.86 24.92
2017-08-01 08/01/2017 after market close ARI Apollo Commercial Real Estate Finance Consumer Services 1990 1.92 18.04
2017-08-01 08/01/2017 AJX Great Ajax Corp. Consumer Services 265.94 1.63 13.85
2017-08-01 08/01/2017 GEO Geo Group Inc (The) Consumer Services 3810 1.39 30.3
2017-07-31 07/31/2017 before market open EDR Education Realty Trust Inc. Consumer Services 2870 0.61 38.56
2017-07-31 07/31/2017 after market close BRX Brixmor Property Group Inc. Consumer Services 5940 0.94 19.42
2017-07-31 07/31/2017 after market close VNO Vornado Realty Trust Consumer Services 17890 5.18 78.11
2017-07-31 07/31/2017 after market close ARE Alexandria Real Estate Equities, Inc. Consumer Services 10830 -1.53 120.14
2017-07-31 07/31/2017 after market close SBAC SBA Communications Corporation Consumer Services 16040 0.48 135.45
2017-07-31 07/31/2017 before market open NRZ New Residential Investment Corp. Consumer Services 5130 2.04 15.92
2017-07-31 07/31/2017 after market close APTS Preferred Apartment Communities, Inc. Consumer Services 501.42 -0.99 16.46
2017-07-31 07/31/2017 after market close HTA Healthcare Trust of America, Inc. Consumer Services 6330 0.34 30.22
2017-07-28 07/28/2017 before market open IRM Iron Mountain Incorporated Consumer Services 9140 0.38 34.86
2017-07-28 07/28/2017 before market open WY Weyerhaeuser Company Consumer Services 25260 1.46 34.12
2017-07-28 07/28/2017 before market open VTR Ventas, Inc. Consumer Services 24500 1.97 67.9
2017-07-28 07/28/2017 before market open HCN Welltower Inc. Consumer Services 27340 3.25 73.01
2017-07-27 07/27/2017 after market close CUBE CubeSmart Consumer Services 4410 0.51 24.2
2017-07-27 07/27/2017 before market open GLPI Gaming and Leisure Properties, Inc. Consumer Services 7560 1.72 38.4
2017-07-27 07/27/2017 after market close OFC Corporate Office Properties Trust Consumer Services 3550 0.12 34.09
2017-07-27 07/27/2017 after market close DLR Digital Realty Trust, Inc. Consumer Services 19100 2.32 112.44
2017-07-27 07/27/2017 after market close CXP Columbia Property Trust, Inc. Consumer Services 2700 1.24 22.03
2017-07-27 07/27/2017 before market open COR CoreSite Realty Corporation Consumer Services 3690 1.65 105.95
2017-07-27 07/27/2017 after market close TCO Taubman Centers, Inc. Consumer Services 3610 1.64 61.22
2017-07-27 07/27/2017 after market close CPT Camden Property Trust Consumer Services 7740 8.96 87.45
2017-07-27 07/27/2017 after market close AIV Apartment Investment and Management Company Consumer Services 6980 2.59 43.43
2017-07-27 07/27/2017 after market close ESS Essex Property Trust, Inc. Consumer Services 17300 7.81 261.45
2017-07-27 07/27/2017 after market close CLPR Clipper Realty Inc. Consumer Services 226.93 -0.27 12.01
2017-07-27 07/27/2017 after market close CUZ Cousins Properties Incorporated Consumer Services 3740 0.2 8.86
2017-07-27 07/27/2017 before market open AMT American Tower Corporation (REIT) Consumer Services 55620 2.07 136.62
2017-07-27 07/27/2017 after market close WRI Weingarten Realty Investors Consumer Services 4110 1.27 31.48
2017-07-27 07/27/2017 FPO First Potomac Realty Trust Consumer Services 649.99 0.64 11.12
2017-07-27 07/27/2017 after market close PEB Pebblebrook Hotel Trust Consumer Services 2270 0.69 32.35
2017-07-26 07/26/2017 after market close UDR United Dominion Realty Trust, Inc. Consumer Services 10700 1.13 38.68
2017-07-26 07/26/2017 after market close PSA Public Storage Consumer Services 36970 7.04 207.72
2017-07-26 07/26/2017 after market close ROIC Retail Opportunity Investments Corp. Consumer Services 2270 0.32 20.4
2017-07-26 07/26/2017 after market close WPG Washington Prime Group Inc. Consumer Services 1530 0.29 9.13
2017-07-26 07/26/2017 after market close CMO Capstead Mortgage Corporation Consumer Services 1050 0.65 10.05
2017-07-26 07/26/2017 after market close DRE Duke Realty Corporation Consumer Services 10330 0.95 27.73
2017-07-26 07/26/2017 after market close FR First Industrial Realty Trust, Inc. Consumer Services 3480 1.09 29.85
2017-07-26 07/26/2017 after market close CYS CYS Investments, Inc. Consumer Services 1340 -0.22 8.38
2017-07-26 07/26/2017 after market close KIM Kimco Realty Corporation Consumer Services 8320 0.63 19.67
2017-07-26 07/26/2017 before market open DDR DDR Corp. Consumer Services 3440 -0.17 9.94
2017-07-26 07/26/2017 after market close KRG Kite Realty Group Trust Consumer Services 1620 -0.01 19.95
2017-07-26 07/26/2017 after market close O Realty Income Corporation Consumer Services 15540 1.15 57.43
2017-07-26 07/26/2017 after market close OHI Omega Healthcare Investors, Inc. Consumer Services 6390 2.13 33.23
2017-07-26 07/26/2017 after market close AGNC AGNC Investment Corp. Consumer Services 7230 4.359 21.055
2017-07-26 07/26/2017 after market close SUI Sun Communities, Inc. Consumer Services 7130 0.44 87.79
2017-07-26 07/26/2017 after market close HST Host Hotels & Resorts, Inc. Consumer Services 13750 0.99 18.44
2017-07-26 07/26/2017 after market close KRC Kilroy Realty Corporation Consumer Services 7530 1.39 72.75
2017-07-26 07/26/2017 after market close ESRT Empire State Realty Trust, Inc. Consumer Services 6710 0.38 20.04
2017-07-26 07/26/2017 after market close MAA Mid-America Apartment Communities, Inc. Consumer Services 12490 2.36 101.41
2017-07-25 07/25/2017 before market open SIR Select Income REIT Consumer Services 2220 1.01 23.58
2017-07-25 07/25/2017 after market close HIW Highwoods Properties, Inc. Consumer Services 5370 1.21 50.18
2017-07-25 07/25/2017 after market close EQR Equity Residential Consumer Services 24880 2.3 66.07
2017-07-25 07/25/2017 after market close HT Hersha Hospitality Trust Consumer Services 799.97 2.91 18.42
2017-07-25 07/25/2017 after market close AKR Acadia Realty Trust Consumer Services 2420 0.73 28.99
2017-07-25 07/25/2017 FCH FelCor Lodging Trust Incorporated Consumer Services 1030 -0.38 7.4
2017-07-25 07/25/2017 after market close PSB PS Business Parks, Inc. Consumer Services 3620 2.74 129.3
2017-07-25 07/25/2017 after market close EGP EastGroup Properties, Inc. Consumer Services 2930 2.63 84.93
2017-07-25 07/25/2017 after market close QTS QTS Realty Trust, Inc. Consumer Services 2520 0.42 53.46
2017-07-25 07/25/2017 before market open LPT Liberty Property Trust Consumer Services 6250 2.33 41.34
2017-07-25 07/25/2017 after market close BXMT Capital Trust, Inc. Consumer Services 3030 2.46 30.97
2017-07-24 ACC American Campus Communities Inc Consumer Services 6460 0.53 0.54 -1.85
2017-07-24 ADC Agree Realty Corporation Consumer Services 1260 0.67 0.67 0
2017-07-24 PCH Potlatch Corporation Consumer Services 1910 0.54 0.3 80
2017-07-24 EQC Equity Commonwealth Consumer Services 3960 0.25 0.27 -7.41
2017-07-20 BDN Brandywine Realty Trust Consumer Services 3090 0.34 0.34 0
2017-07-19 LHO LaSalle Hotel Properties Consumer Services 3490 0.81 0.82 -1.22
2017-07-19 FPI Farmland Partners Inc. Consumer Services 293.98 0.1 0.05 100
2017-07-19 SLG SL Green Realty Corporation Consumer Services 10800 1.78 1.62 9.88
2017-07-19 CCI Crown Castle International Corporation Consumer Services 37090 1.2 1.15 4.35
2017-07-18 PLD Prologis, Inc. Consumer Services 31030 0.84 0.78 7.69
2017-07-17 ELS Equity Lifestyle Properties, Inc. Consumer Services 7460 0.81 0.81 0
2017-06-28 IRET Investors Real Estate Trust Consumer Services 765.64 0.11 0.1 10
2017-06-14 KREF KKR Real Estate Finance Trust Inc. Consumer Services 1160 0.33 0.32 3.13
2017-06-08 UBA Urstadt Biddle Properties Inc. Consumer Services 798.49 0.3 0.29 3.45
2017-05-15 CLPR Clipper Realty Inc. Consumer Services 226.93 0.1 0.07 42.86 11.05 3.17 -1.45 1.68
2017-05-11 GMRE Global Medical REIT Inc. Consumer Services 166.55 0.02 0.12 -83.33 9.08 -4.12 3.08 -1.16
2017-05-10 TIER TIER REIT, Inc. Consumer Services 839.4 0.41 0.35 17.14 16.51 0 -0.18 -0.18
2017-05-10 HPT Hospitality Properties Trust Consumer Services 4950 0.91 0.91 0 29.84 -3.99 -1.44 -5.37
2017-05-09 CHCT Community Healthcare Trust Incorporated Consumer Services 336.41 0.38 0.44 -13.64 24.56 -1.6 4.6 2.92
2017-05-09 LXP Lexington Realty Trust Consumer Services 2470 0.23 0.24 -4.17 9.62 -2.43 -0.21 -2.64
2017-05-09 NHI National Health Investors, Inc. Consumer Services 3170 1.25 1.26 -0.79 72.42 0.4 2.07 2.48
2017-05-09 RSO Resource Capital Corp. Consumer Services 312.32 0.11 -0.06 283.33 9.46 -0.84 4.65 3.77
2017-05-09 LAND Gladstone Land Corporation Consumer Services 134.5 0.14 0.15 -6.67 10.79 -1.82 1.39 -0.45
2017-05-09 WPC W.P. Carey Inc. Consumer Services 7220 1.25 1.13 10.62 61.33 -1.26 0.72 -0.55
2017-05-09 CLDT Chatham Lodging Trust (REIT) Consumer Services 773.48 0.47 0.45 4.44 18.95 -1.25 2.11 0.83
2017-05-09 CLNS Colony NorthStar, Inc. Consumer Services 7820 0.31 0.38 -18.42 13.14 0.54 -1.83 -1.3
2017-05-09 MORE Monogram Residential Trust, Inc. Consumer Services 1680 0.09 0.1 -10 9.89 -1.4 -0.61 -1.99
2017-05-09 REG Regency Centers Corporation Consumer Services 10900 0.9 0.83 8.43 61.53 0.07 2.28 2.34
2017-05-09 SLD Sutherland Asset Management Corporation Consumer Services 468.54 0.33 0.35 -5.71 14.7 -1.34 -0.68 -2.01
2017-05-09 UMH UMH Properties, Inc. Consumer Services 576.2 0.17 0.2 -15
2017-05-09 CHMI Cherry Hill Mortgage Investment Corporation Consumer Services 233.94 0.63 0.48 31.25 16.63 -3.59 4.51 0.75
2017-05-09 DEA Easterly Government Properties, Inc. Consumer Services 787.08 0.31 0.31 0 19.47 -1.17 1.23 0.05
2017-05-09 FCH FelCor Lodging Trust Incorporated Consumer Services 1030 0.09 0.12 -25 7.2 -5.01 2.08 -3.03
2017-05-09 SOHO Sotherly Hotels Inc. Consumer Services 92.17 0.34 0.26 30.77 6.1 -1.29 6.07 4.69
2017-05-09 STWD STARWOOD PROPERTY TRUST, INC. Consumer Services 5870 0.5 0.47 6.38 21.81 -1.18 0.05 -1.13
2017-05-09 CCP Care Capital Properties, Inc. Consumer Services 2190 0.68 0 0 26.63 -5.3 0.53 -4.8
2017-05-09 LADR Ladder Capital Corp Consumer Services 1550 0.29 0.29 0 14.41 -0.76 0 -0.76
2017-05-09 CLI Mack-Cali Realty Corporation Consumer Services 2540 0.56 0.57 -1.75 26.77 -1.11 1.16 0.04
2017-05-08 FPI Farmland Partners Inc. Consumer Services 293.98 0.01 0.08 -87.5 10.8 0.56 -1.94 -1.4
2017-05-08 SBRA Sabra Healthcare REIT, Inc. Consumer Services 1530 0.53 0.59 -10.17 25.31 -5.13 -5.33 -10.19
2017-05-08 RLJ RLJ Lodging Trust Consumer Services 2600 0.52 0.5 4 21.41 -0.56 -4.81 -5.34
2017-05-08 SFR Colony Starwood Homes Consumer Services 4360 0.48 0.46 4.35 33.8 -0.21 -1.36 -1.56
2017-05-08 GNL Global Net Lease, Inc. Consumer Services 1510 0.52 0.6 -13.33 22.54 -0.53 -1.69 -2.21
2017-05-08 LTC LTC Properties, Inc. Consumer Services 1980 0.78 0.78 0 46.94 -0.87 -1.85 -2.7
2017-05-08 MRT MedEquities Realty Trust, Inc. Consumer Services 385.11 0.27 0.26 3.85 11.88 1.28 0.76 2.05
2017-05-05 DRH Diamondrock Hospitality Company Consumer Services 2300 0.18 0.17 5.88 11.27 1.99 -3.19 -1.27
2017-05-05 ABR Arbor Realty Trust Consumer Services 512.89 0.33 0.19 73.68 8.63 2.62 1.97 4.64
2017-05-05 HCN Welltower Inc. Consumer Services 27340 1.05 1.05 0 69.8 -0.09 -0.11 -0.2
2017-05-05 SNH Senior Housing Properties Trust Consumer Services 5100 0.46 0.47 -2.13 21.03 0.86 -1.95 -1.1
2017-05-05 CIO City Office REIT, Inc. Consumer Services 384.87 0.26 0.22 18.18 12.36 1.31 0.49 1.8
2017-05-05 DS Drive Shack Inc. Consumer Services 204.54 -0.01 -0.1 90 3.97 -1.24 -1.76 -2.99
2017-05-04 RWT Redwood Trust, Inc. Consumer Services 1320 0.36 0.35 2.86 16.67 -0.36 1.92 1.55
2017-05-04 AMH American Homes 4 Rent Consumer Services 5800 0.26 0.26 0 22.69 -1.05 -1.85 -2.88
2017-05-04 SNR New Senior Investment Group Inc. Consumer Services 804.98 0.29 0.31 -6.45 9.72 -4.33 2.67 -1.77
2017-05-04 STOR STORE Capital Corporation Consumer Services 3600 0.42 0.41 2.44 21.13 -8.65 -1.04 -9.6
2017-05-04 BFS Saul Centers, Inc. Consumer Services 1290 0.87 0.86 1.16 59.74 -1.24 -0.55 -1.79
2017-05-04 VER VEREIT Inc. Consumer Services 8230 0.19 0.18 5.56 7.67 -6.46 2.35 -4.27
2017-05-04 MPW Medical Properties Trust, Inc. Consumer Services 4820 0.33 0.33 0 12.62 -0.63 2.77 2.13
2017-05-04 AHT Ashford Hospitality Trust Inc Consumer Services 628.48 0.32 0.28 14.29 6.26 -2.95 -1.12 -4.03
2017-05-04 UNIT Uniti Group Inc. Consumer Services 4720 0.65 0.58 12.07 25.28 -4.42 0.24 -4.2
2017-05-04 CDR Cedar Realty Trust, Inc. Consumer Services 449.2 0.14 0.13 7.69 5.17 -2.45 2.51 0
2017-05-04 MFA MFA Financial, Inc. Consumer Services 3190 0.2 0.19 5.26 8.18 -0.85 -3.18 -4
2017-05-04 CPT Camden Property Trust Consumer Services 7740 1.09 1.1 -0.91 81.75 -0.01 0.75 0.73
2017-05-04 DCT DCT Industrial Trust Inc Consumer Services 5070 0.61 0.58 5.17 50.33 0.06 2.34 2.41
2017-05-04 PGRE Paramount Group, Inc. Consumer Services 3800 0.22 0.2 10 16.33 -0.12 1.1 0.98
2017-05-04 HIFR InfraREIT, Inc. Consumer Services 875.57 0.3 0.33 -9.09 18.74 -0.37 1.12 0.74
2017-05-04 IVR INVESCO MORTGAGE CAPITAL INC Consumer Services 1890 0.4 0.39 2.56 15.9 -0.56 0.94 0.38
2017-05-04 LAMR Lamar Advertising Company Consumer Services 7030 0.88 0.91 -3.3 69.99 -0.65 2 1.33
2017-05-04 PMT PennyMac Mortgage Investment Trust Consumer Services 1200 0.4 0.41 -2.44 17.58 -0.57 -0.46 -1.02
2017-05-04 APLE Apple Hospitality REIT, Inc. Consumer Services 4310 0.39 0.4 -2.5 18.99 0 0.9 0.9
2017-05-04 CTT CatchMark Timber Trust, Inc. Consumer Services 451.75 -0.05 -0.08 37.5 11.65 -0.09 0.86 0.77
2017-05-03 OHI Omega Healthcare Investors, Inc. Consumer Services 6390 0.86 0.84 2.38 32.45 -0.25 -2.37 -2.61
2017-05-03 HHC Howard Hughes Corporation (The) Consumer Services 5030 0.13 0 0
2017-05-03 JCAP Jernigan Capital, Inc. Consumer Services 234.3 0.12 0.07 71.43 22.59 -1.61 -3.63 -5.18
2017-05-03 NYMT New York Mortgage Trust, Inc. Consumer Services 729.22 0.14 0.15 -6.67 6.28 -1.26 -2.39 -3.62
2017-05-03 EQC Equity Commonwealth Consumer Services 3960 0.27 0.26 3.85 31.49 -1.19 0.03 -1.16
2017-05-03 REXR Rexford Industrial Realty, Inc. Consumer Services 1860 0.23 0.23 0 24.83 -0.72 1.85 1.12
2017-05-03 FRT Federal Realty Investment Trust Consumer Services 9270 1.45 1.43 1.4 132.3 -1.13 -0.68 -1.8
2017-05-03 WSR Whitestone REIT Consumer Services 469.61 0.32 0.25 28 12.17 -1.7 -5.34 -6.95
2017-05-03 CONE CyrusOne Inc Consumer Services 5050 0.72 0.68 5.88 54.1 -1.01 0.5 -0.51
2017-05-03 MTGE MTGE Investment Corp. Consumer Services 874.74 0.49 0.46 6.52 17.9 -0.83 -1.4 -2.22
2017-05-03 FCPT Four Corners Property Trust, Inc. Consumer Services 1540 0.35 0.34 2.94 22.95 -1.92 -3.75 -5.6
2017-05-03 AHP Ashford Hospitality Prime, Inc. Consumer Services 311.09 0.46 0.4 15 10.88 1.02 -4.32 -3.34
2017-05-03 HR Healthcare Realty Trust Incorporated Consumer Services 4140 0.39 0.4 -2.5 31.7 -0.78 -0.76 -1.53
2017-05-03 INN Summit Hotel Properties, Inc. Consumer Services 1980 0.32 0.3 6.67 16.92 -0.53 0 -0.53
2017-05-03 WMC Western Asset Mortgage Capital Corporation Consumer Services 439.74 0.22 0.31 -29.03 10.41 -0.86 -5.28 -6.1
2017-05-03 CORR CorEnergy Infrastructure Trust, Inc. Consumer Services 416.65 1 1.14 -12.28 35.69 -1.98 -3 -4.92
2017-05-03 DOC Physicians Realty Trust Consumer Services 3230 0.28 0.3 -6.67 19.03 -1.14 -0.11 -1.25
2017-05-03 OUT OUTFRONT Media Inc. Consumer Services 3210 0.28 0.28 0 25.5 -2.19 -8.12 -10.13
2017-05-03 RAS RAIT Financial Trust Consumer Services 217.83 0.06 0.02 200 2.65 -15.06 3.77 -11.86
2017-05-03 RYN Rayonier Inc. Consumer Services 3710 0.05 0.09 -44.44 28.1 -1.2 -2.95 -4.11
2017-05-03 TWO Two Harbors Investments Corp Consumer Services 3580 0.27 0.24 12.5 9.75 -1.42 1.13 -0.3
2017-05-03 CBL CBL & Associates Properties, Inc. Consumer Services 1450 0.52 0.53 -1.89 9.26 -3.94 -8.86 -12.45
2017-05-03 LSI Life Storage, Inc. Consumer Services 3500 1.26 1.27 -0.79 75.61 -0.54 -1.47 -2
2017-05-03 MNR Monmouth Real Estate Investment Corporation Consumer Services 1090 0.18 0.19 -5.26 14.73 -1.93 -1.36 -3.26
2017-05-03 NLY Annaly Capital Management Inc Consumer Services 12570 0.31 0.3 3.33 11.53 -1.37 -0.52 -1.88
2017-05-03 CXW CoreCivic, Inc. Consumer Services 3430 0.63 0.57 10.53 32.86 -2.43 -0.76 -3.18
2017-05-03 NSA National Storage Affiliates Trust Consumer Services 997.98 0.29 0.3 -3.33 23.16 -2.24 0.52 -1.73
2017-05-02 AAT American Assets Trust, Inc. Consumer Services 1930 0.44 0.47 -6.38 43 -0.49 -3.37 -3.84
2017-05-02 RPAI Retail Properties of America, Inc. Consumer Services 3050 0.28 0.26 7.69 13.48 0.9 -2.45 -1.57
2017-05-02 GEO Geo Group Inc (The) Consumer Services 3810 0.51 0.47 8.51 32 -3.03 -1 -4
2017-05-02 GPT Gramercy Property Trust Consumer Services 4630 0.51 0.51 0 27.8 -0.93 -1.22 -2.14
2017-05-02 CTRE CareTrust REIT, Inc. Consumer Services 1380 0.29 0.28 3.57 16.84 -1.58 -1.48 -3.04
2017-05-02 EARN Ellington Residential Mortgage REIT Consumer Services 137.33 0.53 0.49 8.16 15.14 -0.26 0.66 0.4
2017-05-02 ANH Anworth Mortgage Asset Corporation Consumer Services 593.87 0.15 0 0 5.79 -1.86 2.42 0.51
2017-05-02 HCP HCP, Inc. Consumer Services 15070 0.51 0.48 6.25 31.26 -0.6 -2.34 -2.93
2017-05-02 STAG Stag Industrial, Inc. Consumer Services 2490 0.41 0.4 2.5 26.52 -0.41 -1.85 -2.25
2017-05-02 NXRT NexPoint Residential Trust, Inc. Consumer Services 543.14 0.43 0.42 2.38 24.35 -1.62 2.71 1.05
2017-05-02 DEI Douglas Emmett, Inc. Consumer Services 6030 0.47 0.47 0 38.15 -0.21 -1.36 -1.57
2017-05-02 ACRE Ares Commercial Real Estate Corporation Consumer Services 385.66 0.24 0.26 -7.69 13.42 -4.76 -2.38 -7.03
2017-05-02 AJX Great Ajax Corp. Consumer Services 265.94 0.46 0.47 -2.13 13.51 -0.22 1.7 1.48
2017-05-02 ARI Apollo Commercial Real Estate Finance Consumer Services 1990 0.41 0.49 -16.33 18.99 -1.66 -3.11 -4.71
2017-05-02 NNN National Retail Properties Consumer Services 5900 0.6 0.6 0 42.52 0.54 -1.58 -1.04
2017-05-02 EPR EPR Properties Consumer Services 5520 1.15 1.19 -3.36 72.64 -0.47 -2.86 -3.32
2017-05-02 RHP Ryman Hospitality Properties, Inc. Consumer Services 3320 1.22 1.17 4.27 63.75 -0.06 -0.88 -0.94
2017-05-02 RPT Ramco-Gershenson Properties Trust Consumer Services 1070 0.35 0.34 2.94 13.79 1.77 -2.97 -1.25
2017-05-02 HASI Hannon Armstrong Sustainable Infrastructure Capital, Inc. Consumer Services 1190 0.32 0.25 28 21.88 -1.04 -0.78 -1.81
2017-05-01 EDR Education Realty Trust Inc. Consumer Services 2870 0.6 0.56 7.14 38.91 0.36 -2.39 -2.04
2017-05-01 QTS QTS Realty Trust, Inc. Consumer Services 2520 0.64 0.61 4.92 53.56 0.22 -4.99 -4.77
2017-05-01 SKT Tanger Factory Outlet Centers, Inc. Consumer Services 2580 0.58 0.57 1.75 31.99 2.56 -6.85 -4.46
2017-05-01 ARE Alexandria Real Estate Equities, Inc. Consumer Services 10830 1.48 1.46 1.37 112.82 0.28 1.54 1.82
2017-05-01 WHLR Wheeler Real Estate Investment Trust, Inc. Consumer Services 83.9 0.31 0 0
2017-05-01 CIM Chimera Investment Corporation Consumer Services 3600 0.51 0.58 -12.07 20.45 0.44 -5.18 -4.76
2017-05-01 SBAC SBA Communications Corporation Consumer Services 16040 0.31 0.22 40.91 127.25 0.6 1.36 1.97
2017-05-01 APTS Preferred Apartment Communities, Inc. Consumer Services 501.42 0.36 0.34 5.88 14.37 1.55 4.87 6.5
2017-05-01 ARR ARMOUR Residential REIT, Inc. Consumer Services 990.3 0.69 0 0 24.41 1.41 2.38 3.82
2017-05-01 NRZ New Residential Investment Corp. Consumer Services 5130 0.54 0.57 -5.26 17.06 2.34 -0.64 1.68
2017-05-01 BRX Brixmor Property Group Inc. Consumer Services 5940 0.53 0.52 1.92 20.03 1.42 0.7 2.13
2017-05-01 GGP GGP Inc. Consumer Services 21410 0.36 0.36 0 22.61 4.63 1.9 6.62
2017-05-01 VNO Vornado Realty Trust Consumer Services 17890 1.08 1.25 -13.6 96.28 0.04 0.03 0.07
2017-04-28 WY Weyerhaeuser Company Consumer Services 25260 0.22 0.18 22.22 33.87 -2.31 -0.86 -3.14
2017-04-28 HST Host Hotels & Resorts, Inc. Consumer Services 13750 0.44 0.39 12.82 17.95 -6.7 0.56 -6.19
2017-04-28 VTR Ventas, Inc. Consumer Services 24500 1.04 1.02 1.96 64.01 -0.17 -0.06 -0.23
2017-04-27 DLR Digital Realty Trust, Inc. Consumer Services 19100 1.5 1.47 2.04 113.29 1.86 1.37 3.25
2017-04-27 PEB Pebblebrook Hotel Trust Consumer Services 2270 0.54 0.49 10.2 31.2 -0.98 -4.62 -5.55
2017-04-27 AIV Apartment Investment and Management Company Consumer Services 6980 0.58 0.58 0 44.45 -0.87 -1.6 -2.45
2017-04-27 MGP MGM Growth Properties LLC Consumer Services 1670 0.49 0.48 2.08 28.58 1.35 0.14 1.49
2017-04-27 COR CoreSite Realty Corporation Consumer Services 3690 1.13 1.07 5.61 97.3 4.75 0.57 5.34
2017-04-27 CXP Columbia Property Trust, Inc. Consumer Services 2700 0.28 0.27 3.7 22.48 -0.53 0.09 -0.44
2017-04-27 OFC Corporate Office Properties Trust Consumer Services 3550 0.47 0.46 2.17 32.77 -0.24 -0.09 -0.33
2017-04-27 ESS Essex Property Trust, Inc. Consumer Services 17300 2.94 2.89 1.73 241.44 0.17 1.25 1.43
2017-04-27 TCO Taubman Centers, Inc. Consumer Services 3610 0.92 0.89 3.37 25.35 0.4 0 0.4
2017-04-27 CUZ Cousins Properties Incorporated Consumer Services 3740 0.17 0.15 13.33 8.47 0.12 0.24 0.35
2017-04-27 DX Dynex Capital, Inc. Consumer Services 347.39 0.15 0 0 7.2 -2.04 -3.89 -5.85
2017-04-27 GLPI Gaming and Leisure Properties, Inc. Consumer Services 7560 0.79 0.75 5.33 34.71 0.09 0.26 0.35
2017-04-27 AMT American Tower Corporation (REIT) Consumer Services 55620 1.58 1.51 4.64 125.77 2.41 0.14 2.55
2017-04-27 SPG Simon Property Group, Inc. Consumer Services 50180 2.74 2.76 -0.72 167.87 1.71 -1.55 0.13
2017-04-27 SUI Sun Communities, Inc. Consumer Services 7130 1.1 1.07 2.8 84.63 1.72 -1.21 0.49
2017-04-27 MAC Macerich Company (The) Consumer Services 8330 0.87 0.84 3.57 62.71 0.97 -0.45 0.52
2017-04-27 CUBE CubeSmart Consumer Services 4410 0.36 0.36 0 26.16 -3.29 -3.13 -6.32
2017-04-27 FPO First Potomac Realty Trust Consumer Services 649.99 0.23 0.22 4.55 10.98 -1.17 0.18 -0.99
2017-04-27 IRM Iron Mountain Incorporated Consumer Services 9140 0.48 0.51 -5.88 34.86 -3.43 -0.29 -3.71
2017-04-26 EQIX Equinix, Inc. Consumer Services 33810 4.14 3.54 16.95 407.33 0.19 0.89 1.08
2017-04-26 EXR Extra Space Storage Inc Consumer Services 9670 1.03 0.98 5.1 78.97 0.5 -3.7 -3.22
2017-04-26 AVB AvalonBay Communities, Inc. Consumer Services 27000 2.09 2.11 -0.95 188.68 -0.32 -0.24 -0.55
2017-04-26 KRG Kite Realty Group Trust Consumer Services 1620 0.51 0.5 2 21.15 -0.94 0.09 -0.84
2017-04-26 WPG Washington Prime Group Inc. Consumer Services 1530 0.42 0.4 5 8.92 -1 0.22 -0.78
2017-04-26 PCH Potlatch Corporation Consumer Services 1910 0.41 0.24 70.83 46.5 2.76 0.97 3.76
2017-04-26 ROIC Retail Opportunity Investments Corp. Consumer Services 2270 0.28 0.27 3.7 21.1 -1.95 -0.43 -2.37
2017-04-26 DRE Duke Realty Corporation Consumer Services 10330 0.32 0.29 10.34 27.43 -0.11 1.93 1.82
2017-04-26 PSA Public Storage Consumer Services 36970 2.34 2.43 -3.7 223.93 -0.71 -4.88 -5.56
2017-04-26 ESRT Empire State Realty Trust, Inc. Consumer Services 6710 0.21 0.2 5 21.33 -1.3 -1.97 -3.24
2017-04-26 KRC Kilroy Realty Corporation Consumer Services 7530 0.81 0.85 -4.71 71.79 -2.38 -1.42 -3.77
2017-04-26 CMO Capstead Mortgage Corporation Consumer Services 1050 0.2 0.17 17.65 10.94 0.64 3.66 4.32
2017-04-26 AGNC AGNC Investment Corp. Consumer Services 7230 0.64 0.58 10.34 20.8 -0.34 2.64 2.3
2017-04-26 HTA Healthcare Trust of America, Inc. Consumer Services 6330 0.41 0.41 0 31.99 -0.84 0.56 -0.28
2017-04-26 KIM Kimco Realty Corporation Consumer Services 8320 0.37 0.37 0 21.14 -2.63 -2.22 -4.79
2017-04-26 MAA Mid-America Apartment Communities, Inc. Consumer Services 12490 1.46 1.44 1.39 101 -0.46 -2.97 -3.42
2017-04-25 HT Hersha Hospitality Trust Consumer Services 799.97 0.3 0.23 30.43 18.79 0.64 2.29 2.95
2017-04-25 BXP Boston Properties, Inc. Consumer Services 19580 1.48 1.5 -1.33 133.97 0.89 -4.94 -4.1
2017-04-25 LPT Liberty Property Trust Consumer Services 6250 0.6 0.58 3.45 40.9 0.27 0.17 0.44
2017-04-25 DDR DDR Corp. Consumer Services 3440 0.3 0.29 3.45 12.39 1.47 -9.04 -7.7
2017-04-25 PSB PS Business Parks, Inc. Consumer Services 3620 1.52 1.41 7.8 121.57 0.42 0.85 1.27
2017-04-25 SIR Select Income REIT Consumer Services 2220 0.59 0.73 -19.18 24.85 -4.64 2.45 -2.3
2017-04-25 HIW Highwoods Properties, Inc. Consumer Services 5370 0.8 0.78 2.56 51.47 0.45 -0.08 0.37
2017-04-25 BXMT Capital Trust, Inc. Consumer Services 3030 0.55 0.58 -5.17 30.91 0.91 0.91 1.83
2017-04-25 CHSP Chesapeake Lodging Trust Consumer Services 1490 0.41 0.36 13.89 24.7 1.19 1.38 2.58
2017-04-25 LOAN Manhattan Bridge Capital, Inc Consumer Services 40.59 0.1 0 0 5.25 3.96 -0.95 2.97
2017-04-25 O Realty Income Corporation Consumer Services 15540 0.76 0.75 1.33 59.83 -0.42 -1.04 -1.45
2017-04-25 FR First Industrial Realty Trust, Inc. Consumer Services 3480 0.36 0.37 -2.7 27.99 0.47 1.29 1.76
2017-04-25 PEI Pennsylvania Real Estate Investment Trust Consumer Services 806.21 0.35 0.37 -5.41 14.59 -0.07 -1.78 -1.85
2017-04-25 EQR Equity Residential Consumer Services 24880 0.74 0.74 0 64.93 1.14 0.54 1.68
2017-04-24 ACC American Campus Communities Inc Consumer Services 6460 0.62 0.62 0 49.3 -0.6 -1.64 -2.24
2017-04-24 ADC Agree Realty Corporation Consumer Services 1260 0.65 0.65 0 50.02 -2.08 0.74 -1.35
2017-04-24 UDR United Dominion Realty Trust, Inc. Consumer Services 10700 0.45 0.45 0 35.97 -0.66 3.03 2.35
2017-04-24 AKR Acadia Realty Trust Consumer Services 2420 0.4 0.37 8.11 30.76 -2.1 -0.03 -2.13
2017-04-24 CCI Crown Castle International Corporation Consumer Services 37090 1.24 1.16 6.9 94.71 -0.86 -0.46 -1.32
2017-04-24 BOXC Brookfield Canada Office Properties Consumer Services 646.28 0.32 0 0
2017-04-24 WRI Weingarten Realty Investors Consumer Services 4110 0.61 0.6 1.67 34.39 -1.83 -1.54 -3.34
2017-04-20 EGP EastGroup Properties, Inc. Consumer Services 2930 0.99 0.98 1.02 78.33 0.29 1.11 1.41
2017-04-19 SLG SL Green Realty Corporation Consumer Services 10800 1.57 1.57 0 107.96 -0.57 -1.02 -1.58
2017-04-19 BDN Brandywine Realty Trust Consumer Services 3090 0.32 0.32 0 16.89 -0.41 -0.24 -0.65
2017-04-19 CYS CYS Investments, Inc. Consumer Services 1340 0.28 0.26 7.69 8.3 0.36 2.05 2.42
2017-04-19 LHO LaSalle Hotel Properties Consumer Services 3490 0.45 0.43 4.65 29.26 0.79 -0.92 -0.14
2017-04-18 PLD Prologis, Inc. Consumer Services 31030 0.63 0.62 1.61 54.56 -1.27 -0.48 -1.74
2017-04-17 ELS Equity Lifestyle Properties, Inc. Consumer Services 7460 1 0.98 2.04 79.89 0.68 2.27 2.96
2017-03-30 CLPR Clipper Realty Inc. Consumer Services 226.93 0.07 0.05 40 13.41 0.07 -4.4 -4.33
2017-03-27 GMRE Global Medical REIT Inc. Consumer Services 166.55 0.06 0.01 500 8.34 0.36 6.95 7.34
2017-03-15 LOAN Manhattan Bridge Capital, Inc Consumer Services 40.59 0.08 0 0 5.7 0.88 1.75 2.65
2017-03-14 NXRT NexPoint Residential Trust, Inc. Consumer Services 543.14 0.39 0.36 8.33 22.55 -2.72 1.2 -1.55
2017-03-14 SLD Sutherland Asset Management Corporation Consumer Services 468.54 0.35 0.37 -5.41 13.6 1.12 2.94 4.09
2017-03-14 CHMI Cherry Hill Mortgage Investment Corporation Consumer Services 233.94 0.51 0.5 2 18.16 0.22 4.52 4.75
2017-03-13 IRET Investors Real Estate Trust Consumer Services 765.64 0.12 0.13 -7.69 5.88 -0.17 -1.53 -1.7
2017-03-13 RSO Resource Capital Corp. Consumer Services 312.32 -0.12 0.02 -700 8.14 0.99 6.14 7.2
2017-03-10 UBA Urstadt Biddle Properties Inc. Consumer Services 798.49 0.28 0.33 -15.15 20.49 1.29 -1.66 -0.4
2017-03-08 UMH UMH Properties, Inc. Consumer Services 576.2 0.18 0.17 5.88 13.95 -2.65 -0.29 -2.93
2017-03-07 BFS Saul Centers, Inc. Consumer Services 1290 0.73 0.76 -3.95 62.88 -0.55 -0.8 -1.34
2017-03-07 ACRE Ares Commercial Real Estate Corporation Consumer Services 385.66 0.28 0.27 3.7 13.79 3.22 -4.86 -1.8
2017-03-06 WMC Western Asset Mortgage Capital Corporation Consumer Services 439.74 0.42 0.32 31.25 9.97 -1.29 -0.6 -1.88
2017-03-03 ABR Arbor Realty Trust Consumer Services 512.89 0.21 0.2 5 7.64 2.96 0.26 3.23
2017-03-02 CIO City Office REIT, Inc. Consumer Services 384.87 0.23 0.26 -11.54 12.72 -1.85 -1.02 -2.85
2017-03-02 DEA Easterly Government Properties, Inc. Consumer Services 787.08 0.31 0.31 0 20.72 -0.38 -1.16 -1.54
2017-03-01 HPT Hospitality Properties Trust Consumer Services 4950 0.57 0.55 3.64 32 0.69 -2.06 -1.38
2017-03-01 JCAP Jernigan Capital, Inc. Consumer Services 234.3 0.53 0.51 3.92 21.88 1.72 2.1 3.86
2017-03-01 LXP Lexington Realty Trust Consumer Services 2470 0.24 0.24 0 10.88 -2.51 -0.83 -3.32
2017-03-01 CDOR Condor Hospitality Trust, Inc. Consumer Services 122.83 -0.39 0 0 2.13 0 0.94 0.94
2017-03-01 WSR Whitestone REIT Consumer Services 469.61 0.34 0.26 30.77 14.06 -0.71 -1.71 -2.4
2017-03-01 NYRT New York REIT, Inc. Consumer Services 1450 0.02 0.1 -80 9.84 0 0.1 0.1
2017-03-01 AJX Great Ajax Corp. Consumer Services 265.94 0.35 0.52 -32.69 13.31 1.29 -2.1 -0.84
2017-03-01 CORR CorEnergy Infrastructure Trust, Inc. Consumer Services 416.65 0.99 1.14 -13.16 35.95 0.73 -4.65 -3.95
2017-02-28 DS Drive Shack Inc. Consumer Services 204.54 -0.17 0 0 4.19 -2.56 1.67 -0.93
2017-02-28 EPR EPR Properties Consumer Services 5520 1.25 1.23 1.63 76.96 -0.77 -0.56 -1.33
2017-02-28 RHP Ryman Hospitality Properties, Inc. Consumer Services 3320 1.48 1.44 2.78 64.47 -4.56 1.77 -2.87
2017-02-28 CCP Care Capital Properties, Inc. Consumer Services 2190 0.71 0 0 26.29 1.62 -0.76 0.85
2017-02-28 CLI Mack-Cali Realty Corporation Consumer Services 2540 0.56 0.55 1.82 29.15 -1.85 1.85 -0.03
2017-02-28 GPT Gramercy Property Trust Consumer Services 4630 0.48 0.51 -5.88 27.96 -0.25 -0.75 -1
2017-02-28 SNR New Senior Investment Group Inc. Consumer Services 804.98 0.31 0.32 -3.12 10.6 -0.66 -0.94 -1.59
2017-02-28 CLNS Colony NorthStar, Inc. Consumer Services 7820 0.2 0.3 -33.33 14.68 1.66 -3.54 -1.94
2017-02-28 MORE Monogram Residential Trust, Inc. Consumer Services 1680 0.11 0.1 10 10.29 -1.34 0.68 -0.67
2017-02-28 HIFR InfraREIT, Inc. Consumer Services 875.57 0.28 0.29 -3.45 16.65 0.3 3.9 4.22
2017-02-27 APLE Apple Hospitality REIT, Inc. Consumer Services 4310 0.37 0.37 0 20.22 0.15 -2.87 -2.72
2017-02-27 NSA National Storage Affiliates Trust Consumer Services 997.98 0.3 0.28 7.14 24 0.25 0.92 1.17
2017-02-27 WHLR Wheeler Real Estate Investment Trust, Inc. Consumer Services 83.9 0.16 0 0
2017-02-27 SBAC SBA Communications Corporation Consumer Services 16040 0.04 0.11 -63.64 112.79 1.47 2.64 4.15
2017-02-27 APTS Preferred Apartment Communities, Inc. Consumer Services 501.42 0.32 0.32 0 14.17 0 -3.6 -3.6
2017-02-27 SFR Colony Starwood Homes Consumer Services 4360 0.47 0.45 4.44 32.56 0.06 1.04 1.11
2017-02-27 GNL Global Net Lease, Inc. Consumer Services 1510 0.63 0.6 5 8.18 -0.12 0.24 0.12
2017-02-27 AMT American Tower Corporation (REIT) Consumer Services 55620 1.47 1.42 3.52 113.34 0.4 1.28 1.68
2017-02-27 SNH Senior Housing Properties Trust Consumer Services 5100 0.5 0.48 4.17 20.58 1.88 -0.39 1.49
2017-02-27 ARI Apollo Commercial Real Estate Finance Consumer Services 1990 0.47 0.42 11.9 17.98 0.06 2.28 2.34
2017-02-27 MRT MedEquities Realty Trust, Inc. Consumer Services 385.11 0.27 0.27 0 11.36 1.97 -3.96 -2.06